sensor_id;sensor_type;location;lat;lon;timestamp;temperature;humidity
58554;DHT22;48119;53.218;6.576;2022-11-20T00:02:09;6.00;94.10
58554;DHT22;48119;53.218;6.576;2022-11-20T00:04:35;6.00;94.20
58554;DHT22;48119;53.218;6.576;2022-11-20T00:07:01;5.90;94.20
58554;DHT22;48119;53.218;6.576;2022-11-20T00:09:27;5.90;94.30
58554;DHT22;48119;53.218;6.576;2022-11-20T00:11:53;5.90;94.30
58554;DHT22;48119;53.218;6.576;2022-11-20T00:14:19;5.90;94.30
58554;DHT22;48119;53.218;6.576;2022-11-20T00:16:44;5.90;94.40
58554;DHT22;48119;53.218;6.576;2022-11-20T00:19:10;5.90;94.40
58554;DHT22;48119;53.218;6.576;2022-11-20T00:21:36;5.80;94.40
58554;DHT22;48119;53.218;6.576;2022-11-20T00:24:02;5.80;94.30
58554;DHT22;48119;53.218;6.576;2022-11-20T00:26:28;5.80;94.40
58554;DHT22;48119;53.218;6.576;2022-11-20T00:29:00;5.80;94.40
58554;DHT22;48119;53.218;6.576;2022-11-20T00:31:27;5.80;94.30
58554;DHT22;48119;53.218;6.576;2022-11-20T00:33:53;5.80;94.30
58554;DHT22;48119;53.218;6.576;2022-11-20T00:36:21;5.80;94.20
58554;DHT22;48119;53.218;6.576;2022-11-20T00:38:56;5.80;94.20
58554;DHT22;48119;53.218;6.576;2022-11-20T00:41:23;5.80;94.20
58554;DHT22;48119;53.218;6.576;2022-11-20T00:43:51;5.80;94.10
58554;DHT22;48119;53.218;6.576;2022-11-20T00:46:21;5.80;94.10
58554;DHT22;48119;53.218;6.576;2022-11-20T00:48:48;5.80;94.10
58554;DHT22;48119;53.218;6.576;2022-11-20T00:51:20;5.80;94.10
58554;DHT22;48119;53.218;6.576;2022-11-20T00:53:46;5.80;94.10
58554;DHT22;48119;53.218;6.576;2022-11-20T00:56:15;5.80;94.10
58554;DHT22;48119;53.218;6.576;2022-11-20T00:58:43;5.70;94.10
58554;DHT22;48119;53.218;6.576;2022-11-20T01:01:36;5.90;94.00
58554;DHT22;48119;53.218;6.576;2022-11-20T01:04:02;5.90;93.80
58554;DHT22;48119;53.218;6.576;2022-11-20T01:06:34;5.80;93.90
58554;DHT22;48119;53.218;6.576;2022-11-20T01:09:03;5.80;93.70
58554;DHT22;48119;53.218;6.576;2022-11-20T01:11:35;5.90;93.70
58554;DHT22;48119;53.218;6.576;2022-11-20T01:14:04;5.90;93.70
58554;DHT22;48119;53.218;6.576;2022-11-20T01:16:34;5.90;93.70
58554;DHT22;48119;53.218;6.576;2022-11-20T01:19:03;5.90;93.70
58554;DHT22;48119;53.218;6.576;2022-11-20T01:21:34;5.90;93.60
58554;DHT22;48119;53.218;6.576;2022-11-20T01:24:02;5.90;93.60
58554;DHT22;48119;53.218;6.576;2022-11-20T01:26:30;5.90;93.70
58554;DHT22;48119;53.218;6.576;2022-11-20T01:28:58;5.90;93.60
58554;DHT22;48119;53.218;6.576;2022-11-20T01:31:29;5.90;93.70
58554;DHT22;48119;53.218;6.576;2022-11-20T01:33:58;5.90;93.70
58554;DHT22;48119;53.218;6.576;2022-11-20T01:36:25;5.90;93.60
58554;DHT22;48119;53.218;6.576;2022-11-20T01:38:52;5.90;93.60
58554;DHT22;48119;53.218;6.576;2022-11-20T01:41:19;5.80;93.60
58554;DHT22;48119;53.218;6.576;2022-11-20T01:44:03;5.80;93.60
58554;DHT22;48119;53.218;6.576;2022-11-20T01:46:31;5.80;93.70
58554;DHT22;48119;53.218;6.576;2022-11-20T01:51:49;5.90;93.70
58554;DHT22;48119;53.218;6.576;2022-11-20T01:54:23;5.90;93.70
58554;DHT22;48119;53.218;6.576;2022-11-20T01:56:54;5.90;93.50
58554;DHT22;48119;53.218;6.576;2022-11-20T01:59:22;5.90;93.60
58554;DHT22;48119;53.218;6.576;2022-11-20T02:01:49;5.80;93.60
58554;DHT22;48119;53.218;6.576;2022-11-20T02:04:15;5.80;93.60
58554;DHT22;48119;53.218;6.576;2022-11-20T02:06:51;5.80;93.50
58554;DHT22;48119;53.218;6.576;2022-11-20T02:09:19;5.80;93.60
58554;DHT22;48119;53.218;6.576;2022-11-20T02:11:45;5.80;93.60
58554;DHT22;48119;53.218;6.576;2022-11-20T02:14:11;5.80;93.80
58554;DHT22;48119;53.218;6.576;2022-11-20T02:16:43;5.80;93.90
58554;DHT22;48119;53.218;6.576;2022-11-20T02:19:29;5.80;93.90
58554;DHT22;48119;53.218;6.576;2022-11-20T02:22:18;5.80;94.00
58554;DHT22;48119;53.218;6.576;2022-11-20T02:24:49;5.80;94.00
58554;DHT22;48119;53.218;6.576;2022-11-20T02:27:16;5.80;94.20
58554;DHT22;48119;53.218;6.576;2022-11-20T02:30:06;5.80;94.10
58554;DHT22;48119;53.218;6.576;2022-11-20T02:32:37;5.80;93.80
58554;DHT22;48119;53.218;6.576;2022-11-20T02:35:35;5.80;93.90
58554;DHT22;48119;53.218;6.576;2022-11-20T02:37:56;5.80;93.90
58554;DHT22;48119;53.218;6.576;2022-11-20T02:40:23;5.80;93.80
58554;DHT22;48119;53.218;6.576;2022-11-20T02:42:56;5.80;93.70
58554;DHT22;48119;53.218;6.576;2022-11-20T02:45:23;5.80;93.70
58554;DHT22;48119;53.218;6.576;2022-11-20T02:47:52;5.80;93.80
58554;DHT22;48119;53.218;6.576;2022-11-20T02:50:18;5.80;93.80
58554;DHT22;48119;53.218;6.576;2022-11-20T02:52:44;5.80;93.90
58554;DHT22;48119;53.218;6.576;2022-11-20T02:55:10;5.80;93.80
58554;DHT22;48119;53.218;6.576;2022-11-20T02:57:35;5.70;93.70
58554;DHT22;48119;53.218;6.576;2022-11-20T03:00:02;5.70;93.70
58554;DHT22;48119;53.218;6.576;2022-11-20T03:02:32;5.80;93.60
58554;DHT22;48119;53.218;6.576;2022-11-20T03:04:58;5.80;93.50
58554;DHT22;48119;53.218;6.576;2022-11-20T03:07:24;5.80;93.50
58554;DHT22;48119;53.218;6.576;2022-11-20T03:09:50;5.80;93.80
58554;DHT22;48119;53.218;6.576;2022-11-20T03:12:16;5.80;93.30
58554;DHT22;48119;53.218;6.576;2022-11-20T03:14:42;5.90;93.30
58554;DHT22;48119;53.218;6.576;2022-11-20T03:17:07;5.90;93.30
58554;DHT22;48119;53.218;6.576;2022-11-20T03:19:33;5.90;93.20
58554;DHT22;48119;53.218;6.576;2022-11-20T03:21:59;5.90;93.20
58554;DHT22;48119;53.218;6.576;2022-11-20T03:24:26;5.90;93.20
58554;DHT22;48119;53.218;6.576;2022-11-20T03:26:51;5.90;93.10
58554;DHT22;48119;53.218;6.576;2022-11-20T03:29:17;5.90;93.10
58554;DHT22;48119;53.218;6.576;2022-11-20T03:31:43;5.90;93.20
58554;DHT22;48119;53.218;6.576;2022-11-20T03:34:10;5.90;93.20
58554;DHT22;48119;53.218;6.576;2022-11-20T03:36:40;5.90;93.20
58554;DHT22;48119;53.218;6.576;2022-11-20T03:39:06;5.90;93.20
58554;DHT22;48119;53.218;6.576;2022-11-20T03:41:37;5.90;93.10
58554;DHT22;48119;53.218;6.576;2022-11-20T03:44:05;5.90;93.10
58554;DHT22;48119;53.218;6.576;2022-11-20T03:46:31;5.90;93.10
58554;DHT22;48119;53.218;6.576;2022-11-20T03:48:58;5.90;93.10
58554;DHT22;48119;53.218;6.576;2022-11-20T03:51:28;5.90;93.10
58554;DHT22;48119;53.218;6.576;2022-11-20T03:53:56;5.80;93.10
58554;DHT22;48119;53.218;6.576;2022-11-20T03:56:24;5.80;93.10
58554;DHT22;48119;53.218;6.576;2022-11-20T03:58:50;5.80;93.30
58554;DHT22;48119;53.218;6.576;2022-11-20T04:01:21;5.80;93.30
58554;DHT22;48119;53.218;6.576;2022-11-20T04:03:48;5.80;93.20
58554;DHT22;48119;53.218;6.576;2022-11-20T04:06:23;5.80;93.20
58554;DHT22;48119;53.218;6.576;2022-11-20T04:08:49;5.80;93.10
58554;DHT22;48119;53.218;6.576;2022-11-20T04:11:18;5.80;93.20
58554;DHT22;48119;53.218;6.576;2022-11-20T04:13:48;5.80;93.60
58554;DHT22;48119;53.218;6.576;2022-11-20T04:16:14;5.80;93.20
58554;DHT22;48119;53.218;6.576;2022-11-20T04:18:40;5.80;93.10
58554;DHT22;48119;53.218;6.576;2022-11-20T04:21:06;5.80;93.00
58554;DHT22;48119;53.218;6.576;2022-11-20T04:23:33;5.80;93.10
58554;DHT22;48119;53.218;6.576;2022-11-20T04:26:07;5.80;93.00
58554;DHT22;48119;53.218;6.576;2022-11-20T04:28:33;5.80;92.90
58554;DHT22;48119;53.218;6.576;2022-11-20T04:31:10;5.80;93.00
58554;DHT22;48119;53.218;6.576;2022-11-20T04:33:36;5.80;93.00
58554;DHT22;48119;53.218;6.576;2022-11-20T04:36:19;5.80;92.90
58554;DHT22;48119;53.218;6.576;2022-11-20T04:38:46;5.80;92.90
58554;DHT22;48119;53.218;6.576;2022-11-20T04:41:17;5.80;92.90
58554;DHT22;48119;53.218;6.576;2022-11-20T04:43:55;5.80;93.00
58554;DHT22;48119;53.218;6.576;2022-11-20T04:46:28;5.80;93.00
58554;DHT22;48119;53.218;6.576;2022-11-20T04:48:54;5.80;92.90
58554;DHT22;48119;53.218;6.576;2022-11-20T04:51:20;5.80;92.90
58554;DHT22;48119;53.218;6.576;2022-11-20T04:53:46;5.80;92.90
58554;DHT22;48119;53.218;6.576;2022-11-20T04:56:12;5.90;92.90
58554;DHT22;48119;53.218;6.576;2022-11-20T04:58:39;5.90;92.90
58554;DHT22;48119;53.218;6.576;2022-11-20T05:03:37;5.90;92.90
58554;DHT22;48119;53.218;6.576;2022-11-20T05:06:04;5.90;92.90
58554;DHT22;48119;53.218;6.576;2022-11-20T05:08:31;5.90;92.80
58554;DHT22;48119;53.218;6.576;2022-11-20T05:11:14;5.90;92.80
58554;DHT22;48119;53.218;6.576;2022-11-20T05:13:41;5.90;92.80
58554;DHT22;48119;53.218;6.576;2022-11-20T05:16:09;5.90;92.90
58554;DHT22;48119;53.218;6.576;2022-11-20T05:18:36;5.90;92.90
58554;DHT22;48119;53.218;6.576;2022-11-20T05:21:02;5.90;92.90
58554;DHT22;48119;53.218;6.576;2022-11-20T05:23:29;5.90;92.80
58554;DHT22;48119;53.218;6.576;2022-11-20T05:25:56;5.90;92.70
58554;DHT22;48119;53.218;6.576;2022-11-20T05:28:22;5.90;92.60
58554;DHT22;48119;53.218;6.576;2022-11-20T05:30:48;5.90;92.50
58554;DHT22;48119;53.218;6.576;2022-11-20T05:33:14;5.90;92.60
58554;DHT22;48119;53.218;6.576;2022-11-20T05:35:40;5.90;92.70
58554;DHT22;48119;53.218;6.576;2022-11-20T05:38:06;5.90;92.80
58554;DHT22;48119;53.218;6.576;2022-11-20T05:40:32;5.90;92.80
58554;DHT22;48119;53.218;6.576;2022-11-20T05:42:59;5.90;92.70
58554;DHT22;48119;53.218;6.576;2022-11-20T05:45:24;5.90;92.70
58554;DHT22;48119;53.218;6.576;2022-11-20T05:47:50;5.90;92.80
58554;DHT22;48119;53.218;6.576;2022-11-20T05:50:16;5.90;92.80
58554;DHT22;48119;53.218;6.576;2022-11-20T05:52:42;6.00;92.80
58554;DHT22;48119;53.218;6.576;2022-11-20T05:55:08;6.00;92.60
58554;DHT22;48119;53.218;6.576;2022-11-20T05:57:34;5.90;92.60
58554;DHT22;48119;53.218;6.576;2022-11-20T06:00:00;6.00;92.60
58554;DHT22;48119;53.218;6.576;2022-11-20T06:02:26;6.00;92.60
58554;DHT22;48119;53.218;6.576;2022-11-20T06:04:54;5.90;92.60
58554;DHT22;48119;53.218;6.576;2022-11-20T06:07:20;5.90;92.50
58554;DHT22;48119;53.218;6.576;2022-11-20T06:09:46;6.00;92.50
58554;DHT22;48119;53.218;6.576;2022-11-20T06:12:11;6.00;92.40
58554;DHT22;48119;53.218;6.576;2022-11-20T06:14:37;6.00;92.50
58554;DHT22;48119;53.218;6.576;2022-11-20T06:17:03;6.00;92.50
58554;DHT22;48119;53.218;6.576;2022-11-20T06:19:28;6.10;92.60
58554;DHT22;48119;53.218;6.576;2022-11-20T06:21:54;6.00;92.60
58554;DHT22;48119;53.218;6.576;2022-11-20T06:24:20;6.00;92.60
58554;DHT22;48119;53.218;6.576;2022-11-20T06:26:46;6.00;92.60
58554;DHT22;48119;53.218;6.576;2022-11-20T06:29:11;6.00;92.70
58554;DHT22;48119;53.218;6.576;2022-11-20T06:31:40;6.00;92.70
58554;DHT22;48119;53.218;6.576;2022-11-20T06:34:08;6.00;92.80
58554;DHT22;48119;53.218;6.576;2022-11-20T06:36:34;6.00;92.80
58554;DHT22;48119;53.218;6.576;2022-11-20T06:39:00;6.00;92.80
58554;DHT22;48119;53.218;6.576;2022-11-20T06:41:26;6.00;92.80
58554;DHT22;48119;53.218;6.576;2022-11-20T06:43:53;6.00;92.70
58554;DHT22;48119;53.218;6.576;2022-11-20T06:46:19;5.90;92.70
58554;DHT22;48119;53.218;6.576;2022-11-20T06:48:47;6.00;92.80
58554;DHT22;48119;53.218;6.576;2022-11-20T06:51:13;6.00;92.80
58554;DHT22;48119;53.218;6.576;2022-11-20T06:53:39;6.00;92.90
58554;DHT22;48119;53.218;6.576;2022-11-20T06:56:05;6.00;92.90
58554;DHT22;48119;53.218;6.576;2022-11-20T06:58:33;6.00;92.90
58554;DHT22;48119;53.218;6.576;2022-11-20T07:01:00;6.00;92.90
58554;DHT22;48119;53.218;6.576;2022-11-20T07:03:26;6.00;92.90
58554;DHT22;48119;53.218;6.576;2022-11-20T07:05:55;6.00;93.00
58554;DHT22;48119;53.218;6.576;2022-11-20T07:08:21;6.00;93.00
58554;DHT22;48119;53.218;6.576;2022-11-20T07:10:47;6.00;93.00
58554;DHT22;48119;53.218;6.576;2022-11-20T07:13:13;6.00;92.90
58554;DHT22;48119;53.218;6.576;2022-11-20T07:15:39;6.00;93.00
58554;DHT22;48119;53.218;6.576;2022-11-20T07:18:04;6.00;92.90
58554;DHT22;48119;53.218;6.576;2022-11-20T07:20:30;6.00;92.90
58554;DHT22;48119;53.218;6.576;2022-11-20T07:22:56;6.00;93.00
58554;DHT22;48119;53.218;6.576;2022-11-20T07:25:26;6.00;93.10
58554;DHT22;48119;53.218;6.576;2022-11-20T07:27:52;6.00;93.00
58554;DHT22;48119;53.218;6.576;2022-11-20T07:30:18;6.00;93.00
58554;DHT22;48119;53.218;6.576;2022-11-20T07:32:50;6.00;92.90
58554;DHT22;48119;53.218;6.576;2022-11-20T07:35:16;6.00;92.90
58554;DHT22;48119;53.218;6.576;2022-11-20T07:37:41;6.00;92.90
58554;DHT22;48119;53.218;6.576;2022-11-20T07:40:07;6.00;93.00
58554;DHT22;48119;53.218;6.576;2022-11-20T07:42:33;6.00;93.00
58554;DHT22;48119;53.218;6.576;2022-11-20T07:44:59;6.00;93.00
58554;DHT22;48119;53.218;6.576;2022-11-20T07:47:25;6.00;93.00
58554;DHT22;48119;53.218;6.576;2022-11-20T07:49:50;6.00;93.10
58554;DHT22;48119;53.218;6.576;2022-11-20T07:52:16;6.00;93.00
58554;DHT22;48119;53.218;6.576;2022-11-20T07:54:42;6.00;93.00
58554;DHT22;48119;53.218;6.576;2022-11-20T07:57:07;6.00;92.90
58554;DHT22;48119;53.218;6.576;2022-11-20T07:59:33;5.90;92.90
58554;DHT22;48119;53.218;6.576;2022-11-20T08:01:59;6.00;92.90
58554;DHT22;48119;53.218;6.576;2022-11-20T08:04:24;6.00;92.90
58554;DHT22;48119;53.218;6.576;2022-11-20T08:06:52;6.00;93.10
58554;DHT22;48119;53.218;6.576;2022-11-20T08:09:18;6.00;93.00
58554;DHT22;48119;53.218;6.576;2022-11-20T08:11:43;6.00;93.10
58554;DHT22;48119;53.218;6.576;2022-11-20T08:14:27;6.10;93.10
58554;DHT22;48119;53.218;6.576;2022-11-20T08:16:53;6.00;93.00
58554;DHT22;48119;53.218;6.576;2022-11-20T08:19:19;6.00;93.00
58554;DHT22;48119;53.218;6.576;2022-11-20T08:21:45;6.00;93.00
58554;DHT22;48119;53.218;6.576;2022-11-20T08:24:11;6.00;93.10
58554;DHT22;48119;53.218;6.576;2022-11-20T08:26:38;6.00;93.10
58554;DHT22;48119;53.218;6.576;2022-11-20T08:29:04;6.00;93.10
58554;DHT22;48119;53.218;6.576;2022-11-20T08:31:31;6.00;93.10
58554;DHT22;48119;53.218;6.576;2022-11-20T08:33:56;6.00;93.10
58554;DHT22;48119;53.218;6.576;2022-11-20T08:36:25;6.00;93.20
58554;DHT22;48119;53.218;6.576;2022-11-20T08:38:54;6.10;93.20
58554;DHT22;48119;53.218;6.576;2022-11-20T08:41:21;6.10;93.10
58554;DHT22;48119;53.218;6.576;2022-11-20T08:43:52;6.10;93.10
58554;DHT22;48119;53.218;6.576;2022-11-20T08:46:18;6.10;93.00
58554;DHT22;48119;53.218;6.576;2022-11-20T08:48:44;6.10;93.00
58554;DHT22;48119;53.218;6.576;2022-11-20T08:51:11;6.10;92.90
58554;DHT22;48119;53.218;6.576;2022-11-20T08:53:38;6.10;92.90
58554;DHT22;48119;53.218;6.576;2022-11-20T08:56:05;6.10;92.90
58554;DHT22;48119;53.218;6.576;2022-11-20T08:58:31;6.10;92.80
58554;DHT22;48119;53.218;6.576;2022-11-20T09:00:56;6.10;92.80
58554;DHT22;48119;53.218;6.576;2022-11-20T09:03:22;6.10;92.70
58554;DHT22;48119;53.218;6.576;2022-11-20T09:05:48;6.10;92.70
58554;DHT22;48119;53.218;6.576;2022-11-20T09:08:14;6.10;92.90
58554;DHT22;48119;53.218;6.576;2022-11-20T09:10:40;6.20;93.00
58554;DHT22;48119;53.218;6.576;2022-11-20T09:13:05;6.10;92.80
58554;DHT22;48119;53.218;6.576;2022-11-20T09:15:31;6.10;92.90
58554;DHT22;48119;53.218;6.576;2022-11-20T09:18:02;6.10;92.80
58554;DHT22;48119;53.218;6.576;2022-11-20T09:20:30;6.10;92.90
58554;DHT22;48119;53.218;6.576;2022-11-20T09:22:57;6.10;93.00
58554;DHT22;48119;53.218;6.576;2022-11-20T09:25:23;6.10;93.20
58554;DHT22;48119;53.218;6.576;2022-11-20T09:27:58;6.10;93.20
58554;DHT22;48119;53.218;6.576;2022-11-20T09:30:24;6.20;93.40
58554;DHT22;48119;53.218;6.576;2022-11-20T09:32:50;6.20;93.40
58554;DHT22;48119;53.218;6.576;2022-11-20T09:35:16;6.10;93.50
58554;DHT22;48119;53.218;6.576;2022-11-20T09:37:43;6.10;93.40
58554;DHT22;48119;53.218;6.576;2022-11-20T09:40:22;6.10;93.40
58554;DHT22;48119;53.218;6.576;2022-11-20T09:43:12;6.00;93.10
58554;DHT22;48119;53.218;6.576;2022-11-20T09:53:59;6.00;93.10
58554;DHT22;48119;53.218;6.576;2022-11-20T09:56:28;6.00;92.80
58554;DHT22;48119;53.218;6.576;2022-11-20T09:58:57;6.00;92.70
58554;DHT22;48119;53.218;6.576;2022-11-20T10:01:30;6.00;92.70
58554;DHT22;48119;53.218;6.576;2022-11-20T10:04:04;6.00;92.60
58554;DHT22;48119;53.218;6.576;2022-11-20T10:09:26;6.10;92.30
58554;DHT22;48119;53.218;6.576;2022-11-20T10:17:53;6.00;92.30
58554;DHT22;48119;53.218;6.576;2022-11-20T10:25:39;6.10;92.30
58554;DHT22;48119;53.218;6.576;2022-11-20T10:28:26;6.10;92.20
58554;DHT22;48119;53.218;6.576;2022-11-20T10:31:07;6.10;91.80
58554;DHT22;48119;53.218;6.576;2022-11-20T10:33:37;6.10;91.90
58554;DHT22;48119;53.218;6.576;2022-11-20T10:38:42;6.10;91.70
58554;DHT22;48119;53.218;6.576;2022-11-20T10:41:23;6.10;91.50
58554;DHT22;48119;53.218;6.576;2022-11-20T10:44:03;6.10;91.70
58554;DHT22;48119;53.218;6.576;2022-11-20T10:46:44;6.10;91.80
58554;DHT22;48119;53.218;6.576;2022-11-20T10:49:16;6.20;91.40
58554;DHT22;48119;53.218;6.576;2022-11-20T10:54:43;6.20;90.90
58554;DHT22;48119;53.218;6.576;2022-11-20T10:59:59;6.20;91.00
58554;DHT22;48119;53.218;6.576;2022-11-20T11:02:39;6.20;91.00
58554;DHT22;48119;53.218;6.576;2022-11-20T11:07:58;6.20;91.00
58554;DHT22;48119;53.218;6.576;2022-11-20T11:10:42;6.30;91.20
58554;DHT22;48119;53.218;6.576;2022-11-20T11:13:24;6.40;91.30
58554;DHT22;48119;53.218;6.576;2022-11-20T11:15:51;6.40;91.50
58554;DHT22;48119;53.218;6.576;2022-11-20T11:18:31;6.40;91.60
58554;DHT22;48119;53.218;6.576;2022-11-20T11:21:02;6.50;91.60
58554;DHT22;48119;53.218;6.576;2022-11-20T11:23:40;6.50;91.60
58554;DHT22;48119;53.218;6.576;2022-11-20T11:26:23;6.50;91.20
58554;DHT22;48119;53.218;6.576;2022-11-20T11:29:02;6.40;91.00
58554;DHT22;48119;53.218;6.576;2022-11-20T11:31:31;6.40;91.20
58554;DHT22;48119;53.218;6.576;2022-11-20T11:34:14;6.40;91.20
58554;DHT22;48119;53.218;6.576;2022-11-20T11:36:40;6.40;91.20
58554;DHT22;48119;53.218;6.576;2022-11-20T11:39:13;6.40;91.40
58554;DHT22;48119;53.218;6.576;2022-11-20T11:41:40;6.50;91.40
58554;DHT22;48119;53.218;6.576;2022-11-20T11:47:02;6.50;91.50
58554;DHT22;48119;53.218;6.576;2022-11-20T11:49:28;6.50;91.70
58554;DHT22;48119;53.218;6.576;2022-11-20T12:05:40;6.60;90.50
58554;DHT22;48119;53.218;6.576;2022-11-20T12:11:10;6.50;90.40
58554;DHT22;48119;53.218;6.576;2022-11-20T12:16:14;6.50;90.30
58554;DHT22;48119;53.218;6.576;2022-11-20T12:18:41;6.50;90.10
58554;DHT22;48119;53.218;6.576;2022-11-20T12:21:20;6.50;90.30
58554;DHT22;48119;53.218;6.576;2022-11-20T12:32:02;6.60;88.30
58554;DHT22;48119;53.218;6.576;2022-11-20T12:37:44;6.60;86.80
58554;DHT22;48119;53.218;6.576;2022-11-20T12:39:50;6.60;85.90
58554;DHT22;48119;53.218;6.576;2022-11-20T12:48:42;6.60;83.20
58554;DHT22;48119;53.218;6.576;2022-11-20T12:51:28;6.60;81.60
58554;DHT22;48119;53.218;6.576;2022-11-20T13:00:12;6.70;83.00
58554;DHT22;48119;53.218;6.576;2022-11-20T13:08:33;6.80;83.40
58554;DHT22;48119;53.218;6.576;2022-11-20T13:14:04;6.90;82.40
58554;DHT22;48119;53.218;6.576;2022-11-20T13:16:35;6.90;82.60
58554;DHT22;48119;53.218;6.576;2022-11-20T13:19:04;7.00;82.60
58554;DHT22;48119;53.218;6.576;2022-11-20T13:21:42;6.90;82.20
58554;DHT22;48119;53.218;6.576;2022-11-20T13:24:31;6.90;81.50
58554;DHT22;48119;53.218;6.576;2022-11-20T13:27:17;6.90;80.90
58554;DHT22;48119;53.218;6.576;2022-11-20T13:29:58;6.90;81.60
58554;DHT22;48119;53.218;6.576;2022-11-20T13:32:26;6.90;82.50
58554;DHT22;48119;53.218;6.576;2022-11-20T13:35:03;6.90;82.50
58554;DHT22;48119;53.218;6.576;2022-11-20T13:37:37;7.00;82.50
58554;DHT22;48119;53.218;6.576;2022-11-20T13:45:29;7.00;82.30
58554;DHT22;48119;53.218;6.576;2022-11-20T13:47:55;7.00;82.70
58554;DHT22;48119;53.218;6.576;2022-11-20T13:53:36;6.90;82.80
58554;DHT22;48119;53.218;6.576;2022-11-20T14:01:54;6.90;82.00
58554;DHT22;48119;53.218;6.576;2022-11-20T14:04:34;6.90;82.90
58554;DHT22;48119;53.218;6.576;2022-11-20T14:07:01;6.90;82.80
58554;DHT22;48119;53.218;6.576;2022-11-20T14:09:32;7.00;83.10
58554;DHT22;48119;53.218;6.576;2022-11-20T14:11:59;7.00;83.20
58554;DHT22;48119;53.218;6.576;2022-11-20T14:14:27;7.00;83.30
58554;DHT22;48119;53.218;6.576;2022-11-20T14:17:23;7.00;83.50
58554;DHT22;48119;53.218;6.576;2022-11-20T14:19:51;7.00;83.60
58554;DHT22;48119;53.218;6.576;2022-11-20T14:22:19;6.90;84.00
58554;DHT22;48119;53.218;6.576;2022-11-20T14:24:46;7.00;84.50
58554;DHT22;48119;53.218;6.576;2022-11-20T14:27:15;7.00;85.20
58554;DHT22;48119;53.218;6.576;2022-11-20T14:29:43;7.00;85.00
58554;DHT22;48119;53.218;6.576;2022-11-20T14:32:10;7.00;84.80
58554;DHT22;48119;53.218;6.576;2022-11-20T14:34:39;7.00;85.10
58554;DHT22;48119;53.218;6.576;2022-11-20T14:37:11;7.00;85.10
58554;DHT22;48119;53.218;6.576;2022-11-20T14:39:41;7.00;84.80
58554;DHT22;48119;53.218;6.576;2022-11-20T14:42:20;7.00;84.70
58554;DHT22;48119;53.218;6.576;2022-11-20T14:44:47;7.00;85.10
58554;DHT22;48119;53.218;6.576;2022-11-20T14:47:18;6.90;85.40
58554;DHT22;48119;53.218;6.576;2022-11-20T14:49:45;6.90;85.80
58554;DHT22;48119;53.218;6.576;2022-11-20T14:52:22;6.90;86.20
58554;DHT22;48119;53.218;6.576;2022-11-20T14:54:53;6.90;86.20
58554;DHT22;48119;53.218;6.576;2022-11-20T14:57:33;6.80;86.00
58554;DHT22;48119;53.218;6.576;2022-11-20T15:02:33;6.80;86.30
58554;DHT22;48119;53.218;6.576;2022-11-20T15:05:00;6.80;86.50
58554;DHT22;48119;53.218;6.576;2022-11-20T15:07:37;6.80;86.70
58554;DHT22;48119;53.218;6.576;2022-11-20T15:12:31;6.80;86.90
58554;DHT22;48119;53.218;6.576;2022-11-20T15:15:00;6.80;86.90
58554;DHT22;48119;53.218;6.576;2022-11-20T15:17:30;6.70;87.00
58554;DHT22;48119;53.218;6.576;2022-11-20T15:19:56;6.70;87.20
58554;DHT22;48119;53.218;6.576;2022-11-20T15:22:22;6.70;87.00
58554;DHT22;48119;53.218;6.576;2022-11-20T15:24:47;6.70;87.00
58554;DHT22;48119;53.218;6.576;2022-11-20T15:27:13;6.70;87.20
58554;DHT22;48119;53.218;6.576;2022-11-20T15:29:39;6.70;87.10
58554;DHT22;48119;53.218;6.576;2022-11-20T15:32:05;6.70;86.90
58554;DHT22;48119;53.218;6.576;2022-11-20T15:34:31;6.60;87.00
58554;DHT22;48119;53.218;6.576;2022-11-20T15:36:57;6.60;87.10
58554;DHT22;48119;53.218;6.576;2022-11-20T15:39:25;6.60;87.30
58554;DHT22;48119;53.218;6.576;2022-11-20T15:41:51;6.60;87.50
58554;DHT22;48119;53.218;6.576;2022-11-20T15:44:17;6.60;87.60
58554;DHT22;48119;53.218;6.576;2022-11-20T15:46:43;6.60;87.60
58554;DHT22;48119;53.218;6.576;2022-11-20T15:49:15;6.60;87.90
58554;DHT22;48119;53.218;6.576;2022-11-20T15:51:43;6.60;88.00
58554;DHT22;48119;53.218;6.576;2022-11-20T15:56:37;6.60;88.00
58554;DHT22;48119;53.218;6.576;2022-11-20T15:59:03;6.60;88.20
58554;DHT22;48119;53.218;6.576;2022-11-20T16:01:28;6.60;88.30
58554;DHT22;48119;53.218;6.576;2022-11-20T16:03:54;6.60;88.30
58554;DHT22;48119;53.218;6.576;2022-11-20T16:06:20;6.60;88.50
58554;DHT22;48119;53.218;6.576;2022-11-20T16:08:46;6.50;88.50
58554;DHT22;48119;53.218;6.576;2022-11-20T16:11:13;6.50;88.60
58554;DHT22;48119;53.218;6.576;2022-11-20T16:13:39;6.60;88.70
58554;DHT22;48119;53.218;6.576;2022-11-20T16:16:33;6.50;88.60
58554;DHT22;48119;53.218;6.576;2022-11-20T16:18:59;6.40;88.90
58554;DHT22;48119;53.218;6.576;2022-11-20T16:21:27;6.60;89.20
58554;DHT22;48119;53.218;6.576;2022-11-20T16:24:01;6.50;89.20
58554;DHT22;48119;53.218;6.576;2022-11-20T16:26:28;6.50;89.30
58554;DHT22;48119;53.218;6.576;2022-11-20T16:28:54;6.50;89.40
58554;DHT22;48119;53.218;6.576;2022-11-20T16:31:20;6.50;89.60
58554;DHT22;48119;53.218;6.576;2022-11-20T16:33:54;6.40;89.60
58554;DHT22;48119;53.218;6.576;2022-11-20T16:36:22;6.50;89.70
58554;DHT22;48119;53.218;6.576;2022-11-20T16:38:56;6.40;89.70
58554;DHT22;48119;53.218;6.576;2022-11-20T16:41:22;6.40;90.00
58554;DHT22;48119;53.218;6.576;2022-11-20T16:43:50;6.40;90.00
58554;DHT22;48119;53.218;6.576;2022-11-20T16:46:19;6.50;90.20
58554;DHT22;48119;53.218;6.576;2022-11-20T16:48:45;6.50;90.10
58554;DHT22;48119;53.218;6.576;2022-11-20T16:51:17;6.50;90.10
58554;DHT22;48119;53.218;6.576;2022-11-20T16:53:42;6.40;90.10
58554;DHT22;48119;53.218;6.576;2022-11-20T16:56:17;6.40;90.00
58554;DHT22;48119;53.218;6.576;2022-11-20T16:58:47;6.40;89.90
58554;DHT22;48119;53.218;6.576;2022-11-20T17:01:15;6.40;90.00
58554;DHT22;48119;53.218;6.576;2022-11-20T17:03:43;6.40;90.00
58554;DHT22;48119;53.218;6.576;2022-11-20T17:06:17;6.40;89.80
58554;DHT22;48119;53.218;6.576;2022-11-20T17:08:45;6.40;89.80
58554;DHT22;48119;53.218;6.576;2022-11-20T17:11:13;6.30;89.80
58554;DHT22;48119;53.218;6.576;2022-11-20T17:13:39;6.30;90.00
58554;DHT22;48119;53.218;6.576;2022-11-20T17:16:10;6.30;90.40
58554;DHT22;48119;53.218;6.576;2022-11-20T17:18:37;6.30;90.10
58554;DHT22;48119;53.218;6.576;2022-11-20T17:21:04;6.30;90.10
58554;DHT22;48119;53.218;6.576;2022-11-20T17:23:34;6.30;90.20
58554;DHT22;48119;53.218;6.576;2022-11-20T17:28:28;6.30;90.30
58554;DHT22;48119;53.218;6.576;2022-11-20T17:30:58;6.30;90.30
58554;DHT22;48119;53.218;6.576;2022-11-20T17:33:25;6.30;90.30
58554;DHT22;48119;53.218;6.576;2022-11-20T17:35:50;6.30;90.30
58554;DHT22;48119;53.218;6.576;2022-11-20T17:38:16;6.30;90.30
58554;DHT22;48119;53.218;6.576;2022-11-20T17:40:42;6.30;90.40
58554;DHT22;48119;53.218;6.576;2022-11-20T17:43:07;6.30;90.40
58554;DHT22;48119;53.218;6.576;2022-11-20T17:45:34;6.30;90.50
58554;DHT22;48119;53.218;6.576;2022-11-20T17:48:00;6.30;90.50
58554;DHT22;48119;53.218;6.576;2022-11-20T17:50:26;6.30;90.50
58554;DHT22;48119;53.218;6.576;2022-11-20T17:52:52;6.30;90.70
58554;DHT22;48119;53.218;6.576;2022-11-20T17:55:18;6.30;90.80